Time;durP1;ratioP1;P1;durP2;ratioP2;P2;SDS_P1;SDS_P2;PMS_P1;PMS_P2;Temp;Humidity;BMP_temperature;BMP_pressure;BME280_temperature;BME280_humidity;BME280_pressure;Samples;Min_cycle;Max_cycle;Signal;HPM_P1;HPM_P2
2021/10/02 00:37:41;;;;;;;21.60;10.23;;;;;;;5.47;74.67;100963.36;1648725;86;21092;-72
2021/10/02 00:45:18;;;;;;;15.58;9.88;;;;;;;5.43;75.02;100956.72;1644754;86;21936;-72
2021/10/02 00:47:53;;;;;;;17.05;11.05;;;;;;;5.43;74.87;100959.45;1649182;86;21071;-71
2021/10/02 00:50:21;;;;;;;19.90;10.63;;;;;;;5.42;74.86;100950.97;1645723;86;21524;-71
2021/10/02 00:52:49;;;;;;;19.45;11.05;;;;;;;5.40;74.82;100949.02;1637217;85;21520;-71
2021/10/02 00:55:15;;;;;;;15.98;9.05;;;;;;;5.39;74.73;100945.17;1624360;86;21097;-71
2021/10/02 00:57:46;;;;;;;17.00;9.73;;;;;;;5.39;74.68;100945.98;1649112;86;22000;-71
2021/10/02 01:00:20;;;;;;;16.12;9.20;;;;;;;5.38;74.67;100949.80;1641968;86;21036;-72
2021/10/02 01:02:57;;;;;;;16.55;8.75;;;;;;;5.37;74.79;100952.27;1631384;86;21061;-73
2021/10/02 01:05:51;;;;;;;14.53;9.20;;;;;;;5.32;74.94;100951.63;1625589;86;21049;-72
2021/10/02 01:08:38;;;;;;;18.10;9.60;;;;;;;5.31;74.77;100951.87;1648632;86;20979;-72
2021/10/02 01:11:27;;;;;;;17.45;10.18;;;;;;;5.28;74.83;100946.38;1647012;86;21568;-71
2021/10/02 01:14:08;;;;;;;18.37;10.80;;;;;;;5.27;74.82;100941.97;1643220;85;21045;-72
2021/10/02 01:16:42;;;;;;;21.62;12.47;;;;;;;5.26;74.76;100949.89;1635865;86;21069;-72
2021/10/02 01:19:56;;;;;;;20.60;12.45;;;;;;;5.26;74.67;100946.32;1638964;86;21113;-72
2021/10/02 01:22:46;;;;;;;24.85;13.15;;;;;;;5.23;74.58;100949.03;1639176;86;21539;-72
2021/10/02 01:25:52;;;;;;;17.62;10.98;;;;;;;5.18;74.78;100943.48;1633524;86;21904;-71
2021/10/02 01:28:20;;;;;;;18.73;10.28;;;;;;;5.09;75.13;100941.16;1636896;86;21104;-72
2021/10/02 01:33:58;;;;;;;19.30;11.78;;;;;;;5.02;75.58;100943.23;1641540;86;21013;-72
2021/10/02 01:47:37;;;;;;;24.35;14.38;;;;;;;5.04;75.88;100944.34;1640580;86;21547;-72
2021/10/02 01:50:07;;;;;;;24.95;11.93;;;;;;;5.02;75.75;100939.13;1641058;86;21065;-72
2021/10/02 01:52:39;;;;;;;17.35;11.93;;;;;;;5.01;75.67;100937.48;1629715;86;21101;-71
2021/10/02 01:55:08;;;;;;;26.02;12.53;;;;;;;4.98;75.74;100944.25;1639905;86;21499;-72
2021/10/02 01:57:52;;;;;;;19.40;11.25;;;;;;;4.98;75.79;100944.25;1628616;86;21034;-72
2021/10/02 02:00:24;;;;;;;19.90;10.90;;;;;;;4.96;75.65;100943.70;1638295;86;21010;-72
2021/10/02 02:03:05;;;;;;;14.83;9.15;;;;;;;4.93;75.67;100940.62;1636041;86;21014;-73
2021/10/02 02:05:35;;;;;;;23.60;10.88;;;;;;;4.88;75.86;100944.08;1641999;86;21127;-71
2021/10/02 02:08:10;;;;;;;20.30;10.55;;;;;;;4.90;75.99;100945.19;1634006;86;21021;-72
2021/10/02 02:10:42;;;;;;;25.67;10.90;;;;;;;4.90;76.15;100940.57;1639282;86;21073;-73
2021/10/02 02:13:08;;;;;;;26.87;11.45;;;;;;;4.92;76.25;100945.78;1639051;85;21561;-72
2021/10/02 02:15:37;;;;;;;20.40;11.15;;;;;;;4.94;76.32;100946.38;1639868;86;21027;-72
2021/10/02 02:18:10;;;;;;;26.33;12.15;;;;;;;4.94;76.42;100944.48;1643695;86;21364;-72
2021/10/02 02:20:47;;;;;;;23.70;13.08;;;;;;;4.95;76.50;100948.02;1645291;86;21008;-71
2021/10/02 02:23:14;;;;;;;20.70;11.33;;;;;;;4.97;76.56;100943.14;1647342;85;21060;-72
2021/10/02 02:25:47;;;;;;;25.43;12.35;;;;;;;4.98;76.60;100947.55;1648259;85;21045;-72
2021/10/02 02:28:21;;;;;;;17.27;10.82;;;;;;;4.99;76.61;100943.73;1649481;85;21095;-72
2021/10/02 02:30:48;;;;;;;32.20;11.28;;;;;;;5.00;76.59;100945.37;1647918;85;21107;-71
2021/10/02 02:33:20;;;;;;;20.52;9.63;;;;;;;5.01;76.67;100938.84;1635844;86;21055;-71
2021/10/02 02:35:52;;;;;;;20.57;9.75;;;;;;;5.05;76.68;100941.92;1646669;86;21011;-71
2021/10/02 02:38:23;;;;;;;19.82;10.45;;;;;;;5.06;76.75;100940.30;1647180;86;21073;-72
2021/10/02 02:40:56;;;;;;;21.27;11.05;;;;;;;5.09;76.73;100942.53;1641146;86;21128;-71
2021/10/02 02:43:31;;;;;;;21.10;10.80;;;;;;;5.15;76.82;100941.25;1639577;86;21042;-72
2021/10/02 02:45:56;;;;;;;23.95;10.63;;;;;;;5.18;76.83;100935.28;1644309;86;21057;-70
2021/10/02 02:48:31;;;;;;;23.07;11.65;;;;;;;5.21;76.78;100941.61;1645736;86;21026;-72
2021/10/02 02:51:04;;;;;;;23.87;10.65;;;;;;;5.23;76.81;100937.57;1638672;86;21078;-73
2021/10/02 02:53:56;;;;;;;24.55;11.63;;;;;;;5.26;76.83;100928.03;1644310;86;21054;-71
2021/10/02 02:56:44;;;;;;;20.85;10.65;;;;;;;5.28;76.85;100927.25;1645469;86;21074;-73
2021/10/02 02:59:19;;;;;;;28.55;11.90;;;;;;;5.30;76.88;100927.83;1647230;85;21030;-72
2021/10/02 03:01:51;;;;;;;21.05;11.15;;;;;;;5.30;77.09;100922.89;1645157;86;21007;-71
2021/10/02 03:04:21;;;;;;;24.67;12.28;;;;;;;5.32;77.33;100920.19;1639901;86;21017;-72
2021/10/02 03:06:50;;;;;;;22.90;10.55;;;;;;;5.38;77.32;100920.27;1648973;86;21059;-72
2021/10/02 03:09:19;;;;;;;27.80;11.93;;;;;;;5.41;77.28;100918.42;1644156;86;21027;-72
2021/10/02 03:11:47;;;;;;;28.75;12.13;;;;;;;5.44;77.30;100914.62;1630196;86;21490;-72
2021/10/02 03:14:17;;;;;;;22.22;11.30;;;;;;;5.45;77.38;100912.19;1626798;86;21035;-71
2021/10/02 03:16:50;;;;;;;24.27;11.10;;;;;;;5.48;77.37;100917.15;1651668;86;21080;-72
2021/10/02 03:19:18;;;;;;;23.40;11.63;;;;;;;5.48;77.35;100911.69;1651489;86;21047;-72
2021/10/02 03:22:00;;;;;;;23.75;11.25;;;;;;;5.49;77.41;100909.78;1644414;86;21094;-71
2021/10/02 03:24:28;;;;;;;15.63;9.53;;;;;;;5.52;77.53;100906.55;1651016;86;21555;-72
2021/10/02 03:27:03;;;;;;;21.90;9.80;;;;;;;5.55;77.61;100907.41;1638893;86;21129;-71
2021/10/02 03:29:29;;;;;;;20.85;10.32;;;;;;;5.60;77.61;100914.84;1652966;86;21051;-72
2021/10/02 03:31:58;;;;;;;24.35;10.32;;;;;;;5.64;77.64;100905.06;1641568;86;21033;-72
2021/10/02 03:34:26;;;;;;;20.52;9.65;;;;;;;5.68;77.64;100908.93;1654017;86;22084;-72
2021/10/02 03:36:54;;;;;;;20.82;10.68;;;;;;;5.72;77.64;100902.42;1651949;86;21009;-71
2021/10/02 03:39:23;;;;;;;18.32;9.48;;;;;;;5.77;77.63;100908.48;1653760;86;21526;-72
2021/10/02 03:42:15;;;;;;;17.25;9.95;;;;;;;5.79;77.56;100909.91;1647846;86;20989;-72
2021/10/02 03:44:52;;;;;;;21.45;9.95;;;;;;;5.82;77.46;100905.82;1654658;85;21033;-72
2021/10/02 03:47:23;;;;;;;20.12;10.43;;;;;;;5.85;77.38;100910.81;1650940;86;21179;-73
2021/10/02 03:49:53;;;;;;;18.10;10.45;;;;;;;5.87;77.33;100910.55;1653194;85;21017;-73
2021/10/02 03:52:21;;;;;;;19.10;9.70;;;;;;;5.89;77.23;100905.10;1642980;86;21011;-72
2021/10/02 03:54:52;;;;;;;20.45;10.70;;;;;;;5.92;77.16;100907.32;1648105;86;21047;-72
2021/10/02 03:57:18;;;;;;;19.57;9.98;;;;;;;5.94;77.11;100906.53;1651908;86;21061;-71
2021/10/02 03:59:49;;;;;;;16.35;9.75;;;;;;;5.98;77.04;100908.22;1649455;86;21083;-72
2021/10/02 04:02:18;;;;;;;19.35;10.65;;;;;;;6.00;76.95;100905.23;1652862;85;21509;-72
2021/10/02 04:04:52;;;;;;;21.12;10.80;;;;;;;6.00;76.90;100910.17;1647555;86;21051;-72
2021/10/02 04:07:24;;;;;;;26.05;10.98;;;;;;;6.02;76.89;100911.28;1652406;86;21011;-71
2021/10/02 04:09:59;;;;;;;20.10;10.75;;;;;;;6.02;76.94;100911.28;1648409;86;21007;-73
2021/10/02 04:12:27;;;;;;;23.75;10.40;;;;;;;6.02;76.84;100914.02;1651924;85;21570;-71
2021/10/02 04:14:57;;;;;;;22.35;11.40;;;;;;;6.02;76.71;100912.09;1650580;85;20992;-72
2021/10/02 04:17:27;;;;;;;16.93;10.08;;;;;;;6.02;76.64;100917.56;1647264;85;21144;-73
2021/10/02 04:19:56;;;;;;;17.90;10.65;;;;;;;6.02;76.58;100914.82;1643912;86;21622;-72
2021/10/02 04:22:25;;;;;;;25.37;11.28;;;;;;;6.03;76.45;100915.13;1647070;85;21094;-72
2021/10/02 04:24:51;;;;;;;25.62;12.45;;;;;;;6.01;76.41;100907.70;1649373;86;21077;-72
2021/10/02 04:27:27;;;;;;;26.33;12.10;;;;;;;6.00;76.54;100912.07;1634019;86;21050;-72
2021/10/02 04:29:53;;;;;;;27.13;12.30;;;;;;;5.98;76.66;100906.85;1642832;86;21567;-73
2021/10/02 04:32:21;;;;;;;24.65;12.33;;;;;;;5.99;76.71;100909.06;1647684;86;21666;-72
2021/10/02 04:34:51;;;;;;;26.02;12.37;;;;;;;6.00;76.58;100910.70;1648133;86;21069;-72
2021/10/02 04:37:24;;;;;;;33.95;12.53;;;;;;;6.00;76.53;100907.44;1646626;85;21074;-73
2021/10/02 04:39:59;;;;;;;31.20;14.98;;;;;;;6.02;76.41;100900.34;1644163;86;21079;-71
2021/10/02 04:42:27;;;;;;;26.70;13.53;;;;;;;6.05;76.43;100903.42;1646055;85;21102;-72
2021/10/02 04:44:59;;;;;;;25.70;13.28;;;;;;;6.08;76.39;100901.53;1646156;86;21076;-73
2021/10/02 04:47:26;;;;;;;20.40;11.97;;;;;;;6.13;76.32;100902.13;1649948;86;21631;-72
2021/10/02 04:49:53;;;;;;;19.00;12.10;;;;;;;6.20;76.38;100906.88;1646811;86;21146;-71
2021/10/02 04:52:22;;;;;;;27.17;13.55;;;;;;;6.25;76.55;100900.62;1667962;85;21121;-73
2021/10/02 04:54:52;;;;;;;23.40;13.20;;;;;;;6.30;76.64;100896.57;1665003;85;21033;-72
2021/10/02 04:57:23;;;;;;;24.50;13.78;;;;;;;6.38;76.62;100898.57;1670751;85;21073;-72
2021/10/02 04:59:55;;;;;;;29.80;13.68;;;;;;;6.43;76.46;100898.63;1665045;85;20997;-73
2021/10/02 05:02:30;;;;;;;29.57;14.87;;;;;;;6.49;76.21;100902.22;1669402;85;21052;-72
2021/10/02 05:04:58;;;;;;;34.78;14.30;;;;;;;6.56;76.09;100903.69;1668436;85;21537;-73
2021/10/02 05:07:27;;;;;;;20.37;11.93;;;;;;;6.64;75.96;100898.80;1672127;85;21081;-72
2021/10/02 05:09:55;;;;;;;22.70;13.15;;;;;;;6.70;76.03;100901.89;1670170;85;21096;-72
2021/10/02 05:12:26;;;;;;;28.20;12.88;;;;;;;6.78;76.15;100910.16;1665452;85;21010;-72
2021/10/02 05:14:55;;;;;;;24.47;12.53;;;;;;;6.84;76.31;100914.59;1667499;85;21086;-72
2021/10/02 05:17:23;;;;;;;31.62;13.83;;;;;;;6.90;76.39;100913.56;1653462;85;21525;-72
2021/10/02 05:20:00;;;;;;;22.67;13.27;;;;;;;6.97;76.47;100924.31;1668326;85;21057;-72
2021/10/02 05:22:29;;;;;;;23.05;13.55;;;;;;;7.06;76.48;100919.18;1669107;84;21471;-72
2021/10/02 05:25:08;;;;;;;20.80;13.32;;;;;;;7.18;76.42;100924.48;1647139;86;21045;-73
2021/10/02 05:27:35;;;;;;;37.63;17.00;;;;;;;7.29;76.36;100917.97;1647400;86;21116;-72
2021/10/02 05:30:09;;;;;;;32.55;16.10;;;;;;;7.42;76.27;100919.41;1646341;86;21018;-72
2021/10/02 05:32:37;;;;;;;21.62;13.20;;;;;;;7.53;76.10;100924.43;1622808;86;21067;-72
2021/10/02 05:35:05;;;;;;;29.27;14.63;;;;;;;7.64;75.68;100928.05;1638797;86;21026;-71
2021/10/02 05:37:34;;;;;;;18.60;12.25;;;;;;;7.75;75.60;100928.94;1632733;86;21007;-72
2021/10/02 05:40:01;;;;;;;24.35;13.22;;;;;;;7.86;75.42;100928.45;1647318;86;21510;-71
2021/10/02 05:42:30;;;;;;;23.40;12.40;;;;;;;8.00;75.54;100930.70;1649180;86;21042;-72
2021/10/02 05:44:58;;;;;;;23.15;13.32;;;;;;;8.13;75.36;100934.86;1648763;86;21551;-71
2021/10/02 05:47:30;;;;;;;30.80;14.50;;;;;;;8.23;75.10;100931.32;1636813;86;21071;-70
2021/10/02 05:49:58;;;;;;;26.35;13.35;;;;;;;8.35;74.68;100925.59;1644461;86;21573;-70
2021/10/02 05:52:30;;;;;;;25.37;13.65;;;;;;;8.46;74.30;100927.26;1641397;85;21066;-71
2021/10/02 05:54:58;;;;;;;30.10;15.08;;;;;;;8.57;74.20;100928.69;1648540;86;21031;-72
2021/10/02 05:57:25;;;;;;;26.30;15.00;;;;;;;8.65;73.82;100926.77;1647506;85;21042;-71
2021/10/02 05:59:55;;;;;;;30.17;14.60;;;;;;;8.72;73.41;100931.46;1632169;86;21523;-71
2021/10/02 06:02:23;;;;;;;29.40;14.03;;;;;;;8.76;73.39;100930.38;1647685;85;21014;-71
2021/10/02 06:04:55;;;;;;;;;;;;;;;8.84;73.53;100932.57;1644112;86;21494;-71
2021/10/02 06:07:21;;;;;;;32.28;13.65;;;;;;;8.93;73.06;100932.86;1649104;86;20123;-71
2021/10/02 06:09:51;;;;;;;29.95;14.20;;;;;;;9.01;72.78;100929.55;1638430;86;21468;-70
2021/10/02 06:12:20;;;;;;;23.92;13.93;;;;;;;9.11;72.49;100933.42;1648451;86;21051;-72
2021/10/02 06:14:50;;;;;;;32.42;15.60;;;;;;;9.21;72.42;100940.27;1647802;85;21543;-71
2021/10/02 06:17:25;;;;;;;28.80;15.40;;;;;;;9.29;72.41;100943.02;1648395;86;21916;-72
2021/10/02 06:20:08;;;;;;;21.33;14.63;;;;;;;9.36;72.07;100943.58;1645176;86;21039;-71
2021/10/02 06:22:39;;;;;;;24.30;15.18;;;;;;;9.46;71.73;100944.64;1645777;86;21582;-70
2021/10/02 06:25:09;;;;;;;29.12;16.00;;;;;;;9.53;71.70;100944.36;1649149;85;21097;-71
2021/10/02 06:27:45;;;;;;;30.08;14.78;;;;;;;9.60;71.43;100948.45;1648329;86;21027;-71
2021/10/02 06:30:16;;;;;;;26.60;14.75;;;;;;;9.67;71.38;100948.16;1641654;86;21073;-70
2021/10/02 06:32:43;;;;;;;28.42;15.65;;;;;;;9.74;71.24;100945.15;1654960;85;21085;-71
2021/10/02 06:35:14;;;;;;;27.00;14.13;;;;;;;9.82;70.99;100943.20;1643689;86;21072;-72
2021/10/02 06:37:46;;;;;;;28.70;15.10;;;;;;;9.90;70.82;100948.66;1630155;86;21512;-71
2021/10/02 06:40:16;;;;;;;;;;;;;;;10.00;70.99;100945.62;1646811;86;21027;-72
2021/10/02 06:42:45;;;;;;;29.37;16.87;;;;;;;10.09;70.97;100946.13;1627865;86;21487;-71
2021/10/02 06:45:16;;;;;;;27.42;16.15;;;;;;;10.17;70.99;100948.83;1643850;86;21042;-71
2021/10/02 06:47:45;;;;;;;26.75;15.53;;;;;;;10.26;71.08;100953.75;1652651;85;21045;-72
2021/10/02 06:50:11;;;;;;;24.75;13.70;;;;;;;10.31;70.92;100947.67;1644096;86;21078;-71
2021/10/02 06:52:43;;;;;;;25.25;13.80;;;;;;;10.38;70.62;100951.49;1656770;85;21073;-73
2021/10/02 06:55:14;;;;;;;22.90;14.45;;;;;;;10.44;70.18;100948.97;1649173;85;21347;-72
2021/10/02 06:57:43;;;;;;;26.00;14.78;;;;;;;10.52;70.42;100952.27;1668436;84;21067;-71
2021/10/02 07:00:15;;;;;;;24.95;15.55;;;;;;;10.61;70.18;100945.03;1653011;85;21532;-73
2021/10/02 07:02:52;;;;;;;28.35;16.35;;;;;;;10.70;70.22;100948.02;1671355;85;21113;-73
2021/10/02 07:05:19;;;;;;;26.45;16.42;;;;;;;10.79;69.73;100955.13;1671968;85;21062;-71
2021/10/02 07:07:49;;;;;;;34.18;15.78;;;;;;;10.85;69.44;100957.30;1668853;84;21515;-73
2021/10/02 07:10:20;;;;;;;28.40;15.53;;;;;;;10.90;69.09;100955.31;1657333;85;21564;-71
2021/10/02 07:12:50;;;;;;;24.05;14.93;;;;;;;10.97;69.15;100952.80;1672765;85;21007;-72
2021/10/02 07:15:18;;;;;;;26.93;14.47;;;;;;;11.03;68.82;100954.41;1669609;84;21106;-71
2021/10/02 07:17:44;;;;;;;28.62;14.90;;;;;;;11.06;68.48;100951.89;1670314;84;21030;-71
2021/10/02 07:20:18;;;;;;;;;;;;;;;11.15;68.14;100953.48;1670526;85;21046;-73
2021/10/02 07:22:53;;;;;;;26.82;15.00;;;;;;;11.23;68.00;100947.89;1644975;85;20174;-70
2021/10/02 07:25:24;;;;;;;26.02;15.00;;;;;;;11.29;67.53;100947.30;1647526;85;21304;-73
2021/10/02 07:27:53;;;;;;;26.68;14.68;;;;;;;11.36;67.46;100941.44;1644212;86;21000;-71
2021/10/02 07:30:25;;;;;;;25.68;14.55;;;;;;;11.44;66.83;100943.56;1639675;86;21064;-72
2021/10/02 07:32:55;;;;;;;22.00;13.90;;;;;;;11.51;66.85;100945.98;1628177;86;21077;-72
2021/10/02 07:35:23;;;;;;;21.57;14.13;;;;;;;11.58;66.51;100945.63;1647095;85;21052;-72
2021/10/02 07:37:54;;;;;;;26.02;12.78;;;;;;;11.64;66.16;100941.69;1642781;86;21046;-72
2021/10/02 07:40:35;;;;;;;24.27;12.80;;;;;;;11.70;65.89;100943.30;1647274;86;21472;-73
2021/10/02 07:43:04;;;;;;;21.77;13.30;;;;;;;11.78;65.82;100939.89;1647287;85;21662;-73
2021/10/02 07:45:33;;;;;;;17.95;11.25;;;;;;;11.86;65.33;100938.41;1647804;85;21571;-73
2021/10/02 07:48:01;;;;;;;21.97;11.38;;;;;;;11.95;64.89;100942.73;1638459;86;20954;-70
2021/10/02 07:50:30;;;;;;;15.68;10.82;;;;;;;12.03;64.08;100942.63;1643201;86;20962;-71
2021/10/02 07:53:02;;;;;;;16.15;10.78;;;;;;;12.07;64.08;100945.07;1617867;86;21075;-71
2021/10/02 07:55:36;;;;;;;18.02;10.10;;;;;;;12.14;64.09;100942.81;1642780;86;21021;-71
2021/10/02 07:58:07;;;;;;;17.98;10.60;;;;;;;12.23;63.09;100952.63;1645900;86;21542;-70
2021/10/02 08:00:42;;;;;;;15.65;10.20;;;;;;;12.32;62.41;100942.31;1645253;86;20980;-72
2021/10/02 08:03:14;;;;;;;17.37;9.73;;;;;;;12.40;61.50;100948.55;1638987;86;21134;-70
2021/10/02 08:05:45;;;;;;;13.88;9.35;;;;;;;12.46;60.92;100949.28;1647415;86;21058;-72
2021/10/02 08:08:19;;;;;;;14.45;9.13;;;;;;;12.52;60.78;100946.73;1644483;86;21092;-72
2021/10/02 08:10:50;;;;;;;17.77;10.30;;;;;;;12.61;60.87;100938.56;1647502;85;21571;-72
2021/10/02 08:13:20;;;;;;;18.12;10.35;;;;;;;12.69;60.27;100939.84;1648301;86;20994;-71
2021/10/02 08:15:56;;;;;;;16.85;8.95;;;;;;;12.77;60.13;100935.02;1643792;85;21042;-72
2021/10/02 08:18:25;;;;;;;20.88;9.93;;;;;;;12.84;59.80;100937.40;1641374;86;21021;-70
2021/10/02 08:21:06;;;;;;;20.25;9.80;;;;;;;12.92;59.61;100935.33;1630813;86;21144;-71
2021/10/02 08:23:36;;;;;;;16.12;10.25;;;;;;;13.01;59.55;100934.09;1635821;86;21156;-73
2021/10/02 08:26:14;;;;;;;18.15;10.08;;;;;;;13.11;59.63;100924.78;1639091;86;21101;-72
2021/10/02 08:28:45;;;;;;;19.95;10.05;;;;;;;13.20;59.86;100929.90;1640467;86;21048;-73
2021/10/02 08:31:17;;;;;;;23.47;10.45;;;;;;;13.28;59.25;100933.91;1626034;86;21628;-72
2021/10/02 08:33:51;;;;;;;20.43;10.53;;;;;;;13.39;58.57;100933.17;1638481;86;21116;-72
2021/10/02 08:36:17;;;;;;;17.55;9.38;;;;;;;13.46;58.45;100928.62;1640353;86;21506;-71
2021/10/02 08:38:51;;;;;;;17.17;11.15;;;;;;;13.53;58.14;100931.81;1634094;86;21580;-73
2021/10/02 08:41:20;;;;;;;14.30;9.70;;;;;;;13.61;58.11;100933.87;1640255;86;21030;-71
2021/10/02 08:43:53;;;;;;;16.70;10.10;;;;;;;13.70;57.84;100931.80;1636701;86;21057;-71
2021/10/02 08:46:26;;;;;;;15.80;8.70;;;;;;;13.78;57.66;100925.54;1632839;86;21061;-72
2021/10/02 08:49:19;;;;;;;16.32;8.70;;;;;;;13.86;57.45;100926.20;1637869;86;21123;-72
2021/10/02 08:51:51;;;;;;;13.28;7.97;;;;;;;13.95;56.58;100926.86;1641142;86;21051;-71
2021/10/02 08:54:18;;;;;;;19.27;9.38;;;;;;;13.99;56.26;100928.70;1640510;86;21387;-71
2021/10/02 08:56:46;;;;;;;13.28;8.58;;;;;;;14.05;55.91;100916.95;1634228;86;21085;-72
2021/10/02 08:59:20;;;;;;;15.98;7.50;;;;;;;14.14;55.68;100918.98;1638559;86;21025;-72
2021/10/02 09:01:50;;;;;;;13.98;7.15;;;;;;;14.25;55.54;100921.78;1639130;86;21072;-73
2021/10/02 09:04:19;;;;;;;14.00;7.40;;;;;;;14.34;55.05;100916.33;1640650;86;21132;-73
2021/10/02 09:06:50;;;;;;;13.65;7.85;;;;;;;14.41;55.28;100920.06;1636885;86;21035;-73
2021/10/02 09:09:18;;;;;;;14.75;8.00;;;;;;;14.47;54.78;100919.63;1638671;86;21030;-73
2021/10/02 09:11:51;;;;;;;16.50;6.30;;;;;;;14.53;54.46;100925.89;1630332;86;21065;-73
2021/10/02 09:14:23;;;;;;;10.70;6.50;;;;;;;14.59;53.16;100922.41;1635773;86;21003;-74
2021/10/02 09:16:55;;;;;;;11.70;6.12;;;;;;;14.67;53.72;100923.63;1647871;85;21015;-71
2021/10/02 09:19:27;;;;;;;9.53;5.83;;;;;;;14.74;53.38;100921.22;1632137;86;21532;-72
2021/10/02 09:22:04;;;;;;;14.30;6.10;;;;;;;14.82;52.11;100917.72;1643484;86;21063;-72
2021/10/02 09:24:42;;;;;;;7.75;5.67;;;;;;;14.88;51.54;100912.05;1644610;86;21408;-73
2021/10/02 09:27:24;;;;;;;14.30;6.50;;;;;;;14.93;50.68;100913.31;1652578;85;21139;-71
2021/10/02 09:30:10;;;;;;;13.10;5.92;;;;;;;14.96;51.28;100909.92;1644426;86;21031;-72
2021/10/02 09:32:44;;;;;;;15.00;5.72;;;;;;;15.01;50.67;100909.77;1646129;86;21566;-72
2021/10/02 09:35:18;;;;;;;20.10;5.78;;;;;;;15.06;50.65;100905.48;1644463;86;21070;-71
2021/10/02 09:37:50;;;;;;;9.35;5.70;;;;;;;15.12;49.87;100903.40;1649621;86;21162;-72
2021/10/02 09:40:23;;;;;;;9.75;5.10;;;;;;;15.17;49.73;100896.89;1645329;86;21125;-72
2021/10/02 09:43:06;;;;;;;11.93;6.93;;;;;;;15.24;48.97;100904.20;1647494;85;21492;-72
2021/10/02 09:45:36;;;;;;;12.85;6.08;;;;;;;15.31;49.35;100901.80;1647970;86;21055;-72
2021/10/02 09:48:08;;;;;;;7.92;4.78;;;;;;;15.38;49.01;100899.13;1647854;86;20998;-72
2021/10/02 09:50:41;;;;;;;9.03;5.20;;;;;;;15.43;48.87;100892.87;1646206;86;21011;-72
2021/10/02 09:53:12;;;;;;;9.73;5.30;;;;;;;15.49;49.08;100893.53;1647501;86;21777;-72
2021/10/02 09:55:44;;;;;;;18.52;6.28;;;;;;;15.56;49.01;100892.50;1648174;85;21014;-71
2021/10/02 09:58:30;;;;;;;8.70;5.55;;;;;;;15.63;48.23;100891.20;1649401;85;21075;-72
2021/10/02 10:01:01;;;;;;;7.65;5.08;;;;;;;15.69;48.73;100886.58;1646253;86;21055;-73
2021/10/02 10:03:44;;;;;;;10.03;5.50;;;;;;;15.76;49.04;100887.49;1647516;85;21071;-72
2021/10/02 10:06:26;;;;;;;7.45;4.83;;;;;;;15.82;48.53;100877.06;1642679;86;21289;-71
2021/10/02 10:09:14;;;;;;;13.85;5.37;;;;;;;15.87;48.60;100878.30;1632649;86;21061;-71
2021/10/02 10:11:55;;;;;;;9.25;5.60;;;;;;;15.89;48.43;100877.97;1643920;86;21033;-73
2021/10/02 10:14:28;;;;;;;18.77;5.08;;;;;;;15.93;47.58;100874.22;1649787;85;21083;-72
2021/10/02 10:16:59;;;;;;;9.55;4.87;;;;;;;15.94;47.39;100866.14;1642896;85;21192;-72
2021/10/02 10:19:31;;;;;;;11.08;5.87;;;;;;;15.96;47.53;100864.98;1636513;86;21155;-73
2021/10/02 10:22:18;;;;;;;8.88;4.37;;;;;;;16.01;47.55;100863.48;1639111;86;21062;-72
2021/10/02 10:25:08;;;;;;;8.08;4.33;;;;;;;16.06;47.44;100868.32;1639726;86;21302;-72
2021/10/02 10:27:52;;;;;;;10.85;5.58;;;;;;;16.13;47.51;100856.72;1640965;86;21053;-72
2021/10/02 10:30:25;;;;;;;9.73;4.20;;;;;;;16.18;46.37;100854.34;1637707;86;21026;-73
2021/10/02 10:33:09;;;;;;;15.23;8.55;;;;;;;16.20;46.78;100852.06;1635805;86;21113;-73
2021/10/02 10:35:44;;;;;;;19.55;10.40;;;;;;;16.23;46.93;100854.18;1637184;86;21037;-72
2021/10/02 10:38:15;;;;;;;6.87;4.90;;;;;;;16.28;45.67;100850.41;1639021;86;21022;-71
2021/10/02 10:40:45;;;;;;;6.87;4.33;;;;;;;16.32;45.25;100841.67;1630643;86;21589;-72
2021/10/02 10:43:13;;;;;;;8.28;4.55;;;;;;;16.36;45.28;100849.59;1635649;86;21077;-72
2021/10/02 10:45:42;;;;;;;7.42;4.70;;;;;;;16.39;44.64;100839.80;1638081;86;21814;-72
2021/10/02 10:48:11;;;;;;;9.78;4.95;;;;;;;16.41;44.81;100837.51;1641314;86;21105;-71
2021/10/02 10:50:45;;;;;;;16.52;3.90;;;;;;;16.48;44.46;100839.80;1631303;86;21049;-73
2021/10/02 10:53:16;;;;;;;6.80;3.55;;;;;;;16.52;45.37;100842.15;1637375;86;21538;-71
2021/10/02 10:55:58;;;;;;;7.67;4.62;;;;;;;16.57;45.02;100833.63;1619672;86;21018;-72
2021/10/02 10:58:30;;;;;;;10.05;4.30;;;;;;;16.64;44.73;100826.17;1640725;86;21173;-73
2021/10/02 11:01:07;;;;;;;6.50;3.08;;;;;;;16.72;45.02;100821.77;1642823;86;21054;-71
2021/10/02 11:03:52;;;;;;;7.72;3.35;;;;;;;16.74;45.14;100820.83;1639998;86;21116;-70
2021/10/02 11:06:47;;;;;;;7.22;3.35;;;;;;;16.78;45.22;100821.82;1639579;86;21026;-73
2021/10/02 11:09:36;;;;;;;8.38;3.55;;;;;;;16.85;44.09;100821.31;1650708;86;20998;-73
2021/10/02 11:12:09;;;;;;;8.28;3.10;;;;;;;16.86;43.56;100818.76;1637207;86;21546;-72
2021/10/02 11:14:59;;;;;;;5.78;3.47;;;;;;;16.89;43.84;100816.70;1637383;86;21030;-72
2021/10/02 11:17:35;;;;;;;6.22;3.75;;;;;;;16.95;44.42;100818.17;1641989;86;21569;-71
2021/10/02 11:20:27;;;;;;;5.53;3.60;;;;;;;17.02;44.57;100810.13;1648995;86;20983;-72
2021/10/02 11:23:30;;;;;;;6.10;3.37;;;;;;;17.07;43.92;100812.48;1649234;85;21100;-72
2021/10/02 11:26:26;;;;;;;5.78;3.75;;;;;;;17.09;43.65;100807.40;1648291;86;21146;-70
2021/10/02 11:29:20;;;;;;;8.40;3.67;;;;;;;17.11;42.96;100798.17;1640846;86;21093;-73
2021/10/02 11:31:51;;;;;;;11.60;4.08;;;;;;;17.09;43.59;100797.66;1648504;86;21098;-72
2021/10/02 11:34:23;;;;;;;9.63;4.03;;;;;;;17.10;44.38;100796.52;1645621;86;21081;-73
2021/10/02 11:36:58;;;;;;;7.05;3.67;;;;;;;17.15;43.37;100792.16;1649550;86;21088;-73
2021/10/02 11:39:31;;;;;;;11.10;4.35;;;;;;;17.19;42.99;100789.53;1649532;86;21589;-72
2021/10/02 11:42:15;;;;;;;12.47;4.47;;;;;;;17.19;42.81;100796.49;1648625;86;21102;-71
2021/10/02 11:44:49;;;;;;;12.67;4.80;;;;;;;17.18;42.35;100792.88;1650309;85;21016;-72
2021/10/02 11:47:37;;;;;;;10.50;3.98;;;;;;;17.21;42.73;100789.45;1643949;86;21044;-72
2021/10/02 11:50:15;;;;;;;10.30;4.92;;;;;;;17.23;42.32;100794.69;1632416;86;21023;-72
2021/10/02 11:53:01;;;;;;;6.85;3.70;;;;;;;17.25;42.11;100789.58;1646259;86;21754;-73
2021/10/02 11:55:43;;;;;;;7.62;4.30;;;;;;;17.30;42.49;100781.62;1650428;85;21057;-72
2021/10/02 11:58:12;;;;;;;7.22;3.70;;;;;;;17.38;42.45;100782.16;1649505;86;21056;-73
2021/10/02 12:00:53;;;;;;;8.45;4.30;;;;;;;17.43;42.21;100775.00;1648929;86;21535;-73
2021/10/02 12:03:28;;;;;;;9.20;4.35;;;;;;;17.48;42.62;100781.77;1635902;86;21077;-71
2021/10/02 12:06:03;;;;;;;8.20;4.50;;;;;;;17.56;42.37;100777.86;1651353;85;21161;-74
2021/10/02 12:08:34;;;;;;;11.25;5.03;;;;;;;17.60;42.02;100776.04;1642628;86;21614;-72
2021/10/02 12:11:11;;;;;;;9.30;4.50;;;;;;;17.61;41.72;100781.84;1648067;85;21093;-74
2021/10/02 12:13:46;;;;;;;9.38;4.30;;;;;;;17.62;42.22;100777.32;1645920;86;21063;-72
2021/10/02 12:16:29;;;;;;;6.05;3.92;;;;;;;17.68;41.56;100772.95;1668135;85;21006;-72
2021/10/02 12:19:11;;;;;;;8.80;4.12;;;;;;;17.69;41.20;100778.78;1647364;86;21031;-73
2021/10/02 12:21:46;;;;;;;8.20;4.55;;;;;;;17.65;41.12;100775.84;1650536;86;21047;-72
2021/10/02 12:24:32;;;;;;;13.28;4.05;;;;;;;17.63;40.79;100774.80;1648980;86;21070;-72
2021/10/02 12:27:16;;;;;;;6.37;3.52;;;;;;;17.61;41.17;100774.88;1650556;86;21059;-73
2021/10/02 12:29:51;;;;;;;9.00;4.87;;;;;;;17.63;40.97;100772.58;1651353;86;21023;-72
2021/10/02 12:32:24;;;;;;;8.63;3.42;;;;;;;17.61;41.30;100768.73;1650801;86;21546;-72
2021/10/02 12:35:04;;;;;;;10.58;4.35;;;;;;;17.61;41.35;100769.30;1649077;86;21039;-71
2021/10/02 12:37:33;;;;;;;16.70;4.60;;;;;;;17.58;41.10;100771.38;1650420;86;21083;-72
2021/10/02 12:40:10;;;;;;;7.08;4.30;;;;;;;17.55;41.47;100764.52;1652469;86;21546;-72
2021/10/02 12:42:48;;;;;;;7.45;4.08;;;;;;;17.56;41.56;100761.97;1650186;86;21063;-72
2021/10/02 12:45:20;;;;;;;7.97;4.20;;;;;;;17.52;41.34;100763.22;1643550;86;21080;-71